sensor_id;sensor_type;location;lat;lon;timestamp;P1;durP1;ratioP1;P2;durP2;ratioP2
4432;SDS011;2229;48.708;9.706;2023-03-23T00:01:08;4.20;;;1.50;;
4432;SDS011;2229;48.708;9.706;2023-03-23T00:03:38;3.87;;;1.00;;
4432;SDS011;2229;48.708;9.706;2023-03-23T00:06:06;2.07;;;0.93;;
4432;SDS011;2229;48.708;9.706;2023-03-23T00:08:34;2.80;;;0.87;;
4432;SDS011;2229;48.708;9.706;2023-03-23T00:11:03;3.00;;;0.90;;
4432;SDS011;2229;48.708;9.706;2023-03-23T00:13:30;4.50;;;2.30;;
4432;SDS011;2229;48.708;9.706;2023-03-23T00:15:58;2.27;;;1.10;;
4432;SDS011;2229;48.708;9.706;2023-03-23T00:18:26;2.30;;;1.50;;
4432;SDS011;2229;48.708;9.706;2023-03-23T00:20:54;2.33;;;1.00;;
4432;SDS011;2229;48.708;9.706;2023-03-23T00:23:23;1.90;;;1.10;;
4432;SDS011;2229;48.708;9.706;2023-03-23T00:25:52;1.60;;;1.00;;
4432;SDS011;2229;48.708;9.706;2023-03-23T00:28:22;4.63;;;2.03;;
4432;SDS011;2229;48.708;9.706;2023-03-23T00:30:55;4.80;;;2.13;;
4432;SDS011;2229;48.708;9.706;2023-03-23T00:33:24;3.10;;;1.70;;
4432;SDS011;2229;48.708;9.706;2023-03-23T00:35:54;3.60;;;1.30;;
4432;SDS011;2229;48.708;9.706;2023-03-23T00:38:22;8.23;;;2.70;;
4432;SDS011;2229;48.708;9.706;2023-03-23T00:40:52;3.00;;;0.97;;
4432;SDS011;2229;48.708;9.706;2023-03-23T00:43:22;5.30;;;1.60;;
4432;SDS011;2229;48.708;9.706;2023-03-23T00:45:54;1.40;;;0.83;;
4432;SDS011;2229;48.708;9.706;2023-03-23T00:48:22;2.23;;;0.93;;
4432;SDS011;2229;48.708;9.706;2023-03-23T00:50:51;1.80;;;1.00;;
4432;SDS011;2229;48.708;9.706;2023-03-23T00:53:21;2.30;;;1.07;;
4432;SDS011;2229;48.708;9.706;2023-03-23T00:55:48;3.57;;;1.03;;
4432;SDS011;2229;48.708;9.706;2023-03-23T00:58:16;2.77;;;1.03;;
4432;SDS011;2229;48.708;9.706;2023-03-23T01:00:43;1.63;;;0.80;;
4432;SDS011;2229;48.708;9.706;2023-03-23T01:03:10;3.47;;;1.40;;
4432;SDS011;2229;48.708;9.706;2023-03-23T01:05:43;2.67;;;1.20;;
4432;SDS011;2229;48.708;9.706;2023-03-23T01:08:13;2.73;;;1.70;;
4432;SDS011;2229;48.708;9.706;2023-03-23T01:10:45;4.80;;;1.53;;
4432;SDS011;2229;48.708;9.706;2023-03-23T01:13:12;3.00;;;1.73;;
4432;SDS011;2229;48.708;9.706;2023-03-23T01:15:41;2.63;;;1.03;;
4432;SDS011;2229;48.708;9.706;2023-03-23T01:18:09;2.37;;;0.90;;
4432;SDS011;2229;48.708;9.706;2023-03-23T01:20:36;2.23;;;1.10;;
4432;SDS011;2229;48.708;9.706;2023-03-23T01:23:04;2.40;;;1.07;;
4432;SDS011;2229;48.708;9.706;2023-03-23T01:25:34;1.87;;;1.03;;
4432;SDS011;2229;48.708;9.706;2023-03-23T01:28:04;2.83;;;0.93;;
4432;SDS011;2229;48.708;9.706;2023-03-23T01:30:31;1.87;;;1.00;;
4432;SDS011;2229;48.708;9.706;2023-03-23T01:32:58;1.80;;;0.87;;
4432;SDS011;2229;48.708;9.706;2023-03-23T01:35:25;2.73;;;1.10;;
4432;SDS011;2229;48.708;9.706;2023-03-23T01:37:53;1.10;;;0.60;;
4432;SDS011;2229;48.708;9.706;2023-03-23T01:40:20;1.93;;;1.03;;
4432;SDS011;2229;48.708;9.706;2023-03-23T01:42:47;2.37;;;1.37;;
4432;SDS011;2229;48.708;9.706;2023-03-23T01:45:25;5.03;;;1.40;;
4432;SDS011;2229;48.708;9.706;2023-03-23T01:48:08;2.00;;;1.30;;
4432;SDS011;2229;48.708;9.706;2023-03-23T01:50:42;3.20;;;1.40;;
4432;SDS011;2229;48.708;9.706;2023-03-23T01:53:16;1.73;;;0.90;;
4432;SDS011;2229;48.708;9.706;2023-03-23T01:55:45;1.50;;;0.80;;
4432;SDS011;2229;48.708;9.706;2023-03-23T01:58:17;2.13;;;0.70;;
4432;SDS011;2229;48.708;9.706;2023-03-23T02:00:48;3.10;;;1.60;;
4432;SDS011;2229;48.708;9.706;2023-03-23T02:03:16;1.63;;;0.70;;
4432;SDS011;2229;48.708;9.706;2023-03-23T02:05:45;1.93;;;0.97;;
4432;SDS011;2229;48.708;9.706;2023-03-23T02:08:27;2.90;;;1.20;;
4432;SDS011;2229;48.708;9.706;2023-03-23T02:10:59;1.40;;;0.90;;
4432;SDS011;2229;48.708;9.706;2023-03-23T02:13:27;4.23;;;1.20;;
4432;SDS011;2229;48.708;9.706;2023-03-23T02:15:59;1.60;;;0.80;;
4432;SDS011;2229;48.708;9.706;2023-03-23T02:18:37;1.43;;;0.80;;
4432;SDS011;2229;48.708;9.706;2023-03-23T02:24:34;2.23;;;0.93;;
4432;SDS011;2229;48.708;9.706;2023-03-23T02:27:13;1.60;;;0.97;;
4432;SDS011;2229;48.708;9.706;2023-03-23T02:29:48;1.90;;;1.07;;
4432;SDS011;2229;48.708;9.706;2023-03-23T02:35:33;2.90;;;0.80;;
4432;SDS011;2229;48.708;9.706;2023-03-23T02:38:05;3.10;;;1.20;;
4432;SDS011;2229;48.708;9.706;2023-03-23T02:40:37;1.80;;;0.70;;
4432;SDS011;2229;48.708;9.706;2023-03-23T02:43:08;3.70;;;1.10;;
4432;SDS011;2229;48.708;9.706;2023-03-23T02:45:38;4.80;;;1.40;;
4432;SDS011;2229;48.708;9.706;2023-03-23T02:48:08;5.53;;;1.60;;
4432;SDS011;2229;48.708;9.706;2023-03-23T02:50:37;2.97;;;1.30;;
4432;SDS011;2229;48.708;9.706;2023-03-23T02:53:07;5.17;;;1.53;;
4432;SDS011;2229;48.708;9.706;2023-03-23T02:55:37;2.00;;;0.97;;
4432;SDS011;2229;48.708;9.706;2023-03-23T02:58:08;2.63;;;1.57;;
4432;SDS011;2229;48.708;9.706;2023-03-23T03:00:36;3.53;;;1.57;;
4432;SDS011;2229;48.708;9.706;2023-03-23T03:03:04;5.17;;;1.70;;
4432;SDS011;2229;48.708;9.706;2023-03-23T03:05:35;3.60;;;1.43;;
4432;SDS011;2229;48.708;9.706;2023-03-23T03:08:15;2.00;;;1.10;;
4432;SDS011;2229;48.708;9.706;2023-03-23T03:10:50;2.90;;;1.60;;
4432;SDS011;2229;48.708;9.706;2023-03-23T03:13:27;1.50;;;0.70;;
4432;SDS011;2229;48.708;9.706;2023-03-23T03:16:05;2.03;;;0.80;;
4432;SDS011;2229;48.708;9.706;2023-03-23T03:18:38;2.30;;;0.77;;
4432;SDS011;2229;48.708;9.706;2023-03-23T03:21:10;2.97;;;0.90;;
4432;SDS011;2229;48.708;9.706;2023-03-23T03:23:42;2.70;;;0.67;;
4432;SDS011;2229;48.708;9.706;2023-03-23T03:26:11;1.33;;;0.70;;
4432;SDS011;2229;48.708;9.706;2023-03-23T03:28:47;1.37;;;0.67;;
4432;SDS011;2229;48.708;9.706;2023-03-23T03:31:18;1.63;;;0.73;;
4432;SDS011;2229;48.708;9.706;2023-03-23T03:33:48;2.80;;;0.90;;
4432;SDS011;2229;48.708;9.706;2023-03-23T03:36:18;1.40;;;0.70;;
4432;SDS011;2229;48.708;9.706;2023-03-23T03:38:48;2.23;;;0.97;;
4432;SDS011;2229;48.708;9.706;2023-03-23T03:41:19;2.40;;;1.30;;
4432;SDS011;2229;48.708;9.706;2023-03-23T03:43:47;1.60;;;0.80;;
4432;SDS011;2229;48.708;9.706;2023-03-23T03:46:15;2.00;;;1.00;;
4432;SDS011;2229;48.708;9.706;2023-03-23T03:48:42;6.40;;;0.70;;
4432;SDS011;2229;48.708;9.706;2023-03-23T03:51:09;2.07;;;0.90;;
4432;SDS011;2229;48.708;9.706;2023-03-23T03:53:42;2.63;;;1.20;;
4432;SDS011;2229;48.708;9.706;2023-03-23T03:56:09;1.80;;;0.83;;
4432;SDS011;2229;48.708;9.706;2023-03-23T03:58:44;1.07;;;0.47;;
4432;SDS011;2229;48.708;9.706;2023-03-23T04:01:46;11.60;;;0.90;;
4432;SDS011;2229;48.708;9.706;2023-03-23T04:04:19;2.00;;;0.90;;
4432;SDS011;2229;48.708;9.706;2023-03-23T04:06:47;7.90;;;2.50;;
4432;SDS011;2229;48.708;9.706;2023-03-23T04:09:17;5.10;;;2.00;;
4432;SDS011;2229;48.708;9.706;2023-03-23T04:11:46;3.63;;;1.63;;
4432;SDS011;2229;48.708;9.706;2023-03-23T04:14:36;2.17;;;1.27;;
4432;SDS011;2229;48.708;9.706;2023-03-23T04:17:04;2.37;;;1.07;;
4432;SDS011;2229;48.708;9.706;2023-03-23T04:19:36;3.77;;;1.60;;
4432;SDS011;2229;48.708;9.706;2023-03-23T04:22:07;2.30;;;0.93;;
4432;SDS011;2229;48.708;9.706;2023-03-23T04:24:38;1.20;;;0.60;;
4432;SDS011;2229;48.708;9.706;2023-03-23T04:27:10;2.27;;;0.53;;
4432;SDS011;2229;48.708;9.706;2023-03-23T04:29:39;1.93;;;0.70;;
4432;SDS011;2229;48.708;9.706;2023-03-23T04:32:25;1.50;;;0.60;;
4432;SDS011;2229;48.708;9.706;2023-03-23T04:34:55;1.33;;;0.77;;
4432;SDS011;2229;48.708;9.706;2023-03-23T04:37:27;3.00;;;0.90;;
4432;SDS011;2229;48.708;9.706;2023-03-23T04:39:57;1.50;;;0.67;;
4432;SDS011;2229;48.708;9.706;2023-03-23T04:42:27;10.63;;;0.97;;
4432;SDS011;2229;48.708;9.706;2023-03-23T04:45:18;2.47;;;1.03;;
4432;SDS011;2229;48.708;9.706;2023-03-23T04:47:50;1.40;;;0.70;;
4432;SDS011;2229;48.708;9.706;2023-03-23T04:50:26;1.50;;;0.97;;
4432;SDS011;2229;48.708;9.706;2023-03-23T04:52:59;1.60;;;0.70;;
4432;SDS011;2229;48.708;9.706;2023-03-23T04:55:31;3.63;;;0.97;;
4432;SDS011;2229;48.708;9.706;2023-03-23T04:58:01;1.43;;;0.60;;
4432;SDS011;2229;48.708;9.706;2023-03-23T05:00:35;2.17;;;0.83;;
4432;SDS011;2229;48.708;9.706;2023-03-23T05:03:03;1.30;;;0.50;;
4432;SDS011;2229;48.708;9.706;2023-03-23T05:05:33;1.60;;;0.67;;
4432;SDS011;2229;48.708;9.706;2023-03-23T05:08:05;1.20;;;0.50;;
4432;SDS011;2229;48.708;9.706;2023-03-23T05:10:37;1.97;;;0.80;;
4432;SDS011;2229;48.708;9.706;2023-03-23T05:13:08;1.40;;;0.80;;
4432;SDS011;2229;48.708;9.706;2023-03-23T05:15:35;1.60;;;0.67;;
4432;SDS011;2229;48.708;9.706;2023-03-23T05:18:04;2.30;;;0.97;;
4432;SDS011;2229;48.708;9.706;2023-03-23T05:20:32;7.53;;;3.90;;
4432;SDS011;2229;48.708;9.706;2023-03-23T05:23:03;15.10;;;4.80;;
4432;SDS011;2229;48.708;9.706;2023-03-23T05:25:34;22.30;;;8.23;;
4432;SDS011;2229;48.708;9.706;2023-03-23T05:28:11;29.40;;;7.77;;
4432;SDS011;2229;48.708;9.706;2023-03-23T05:30:58;15.80;;;5.63;;
4432;SDS011;2229;48.708;9.706;2023-03-23T05:33:30;10.80;;;5.40;;
4432;SDS011;2229;48.708;9.706;2023-03-23T05:36:12;7.83;;;3.60;;
4432;SDS011;2229;48.708;9.706;2023-03-23T05:39:00;1.87;;;0.87;;
4432;SDS011;2229;48.708;9.706;2023-03-23T05:41:41;3.40;;;1.00;;
4432;SDS011;2229;48.708;9.706;2023-03-23T05:44:10;2.40;;;0.83;;
4432;SDS011;2229;48.708;9.706;2023-03-23T05:46:46;3.13;;;1.20;;
4432;SDS011;2229;48.708;9.706;2023-03-23T05:49:14;2.37;;;1.03;;
4432;SDS011;2229;48.708;9.706;2023-03-23T05:51:43;6.77;;;2.43;;
4432;SDS011;2229;48.708;9.706;2023-03-23T05:54:11;5.40;;;2.03;;
4432;SDS011;2229;48.708;9.706;2023-03-23T05:56:41;6.70;;;1.97;;
4432;SDS011;2229;48.708;9.706;2023-03-23T05:59:18;3.67;;;2.03;;
4432;SDS011;2229;48.708;9.706;2023-03-23T06:01:50;3.10;;;1.03;;
4432;SDS011;2229;48.708;9.706;2023-03-23T06:04:19;3.00;;;0.90;;
4432;SDS011;2229;48.708;9.706;2023-03-23T06:06:59;4.23;;;1.30;;
4432;SDS011;2229;48.708;9.706;2023-03-23T06:09:27;2.70;;;0.87;;
4432;SDS011;2229;48.708;9.706;2023-03-23T06:12:15;1.87;;;0.67;;
4432;SDS011;2229;48.708;9.706;2023-03-23T06:15:05;4.20;;;1.00;;
4432;SDS011;2229;48.708;9.706;2023-03-23T06:17:53;1.40;;;0.70;;
4432;SDS011;2229;48.708;9.706;2023-03-23T06:20:26;2.97;;;1.37;;
4432;SDS011;2229;48.708;9.706;2023-03-23T06:22:54;2.10;;;0.70;;
4432;SDS011;2229;48.708;9.706;2023-03-23T06:25:27;2.40;;;1.20;;
4432;SDS011;2229;48.708;9.706;2023-03-23T06:27:55;1.30;;;0.50;;
4432;SDS011;2229;48.708;9.706;2023-03-23T06:30:24;1.70;;;1.00;;
4432;SDS011;2229;48.708;9.706;2023-03-23T06:32:55;3.13;;;0.70;;
4432;SDS011;2229;48.708;9.706;2023-03-23T06:35:43;1.33;;;0.80;;
4432;SDS011;2229;48.708;9.706;2023-03-23T06:38:22;1.60;;;0.63;;
4432;SDS011;2229;48.708;9.706;2023-03-23T06:40:53;2.33;;;0.70;;
4432;SDS011;2229;48.708;9.706;2023-03-23T06:43:22;1.40;;;0.70;;
4432;SDS011;2229;48.708;9.706;2023-03-23T06:46:07;1.37;;;0.57;;
4432;SDS011;2229;48.708;9.706;2023-03-23T06:48:37;1.67;;;1.00;;
4432;SDS011;2229;48.708;9.706;2023-03-23T06:51:05;2.00;;;0.93;;
4432;SDS011;2229;48.708;9.706;2023-03-23T06:53:35;2.53;;;1.37;;
4432;SDS011;2229;48.708;9.706;2023-03-23T06:56:05;1.93;;;0.87;;
4432;SDS011;2229;48.708;9.706;2023-03-23T06:58:33;5.90;;;2.30;;
4432;SDS011;2229;48.708;9.706;2023-03-23T07:01:03;4.10;;;0.87;;
4432;SDS011;2229;48.708;9.706;2023-03-23T07:03:39;4.03;;;0.70;;
4432;SDS011;2229;48.708;9.706;2023-03-23T07:06:09;2.23;;;1.20;;
4432;SDS011;2229;48.708;9.706;2023-03-23T07:08:44;2.93;;;0.67;;
4432;SDS011;2229;48.708;9.706;2023-03-23T07:11:17;2.03;;;1.00;;
4432;SDS011;2229;48.708;9.706;2023-03-23T07:13:52;2.27;;;0.83;;
4432;SDS011;2229;48.708;9.706;2023-03-23T07:16:20;1.30;;;0.70;;
4432;SDS011;2229;48.708;9.706;2023-03-23T07:18:48;1.80;;;0.90;;
4432;SDS011;2229;48.708;9.706;2023-03-23T07:21:16;1.97;;;0.80;;
4432;SDS011;2229;48.708;9.706;2023-03-23T07:23:44;3.57;;;2.10;;
4432;SDS011;2229;48.708;9.706;2023-03-23T07:26:34;2.77;;;0.73;;
4432;SDS011;2229;48.708;9.706;2023-03-23T07:29:02;6.23;;;0.80;;
4432;SDS011;2229;48.708;9.706;2023-03-23T07:31:37;2.10;;;0.80;;
4432;SDS011;2229;48.708;9.706;2023-03-23T07:34:13;2.10;;;0.80;;
4432;SDS011;2229;48.708;9.706;2023-03-23T07:37:00;2.27;;;0.63;;
4432;SDS011;2229;48.708;9.706;2023-03-23T07:39:29;2.27;;;1.07;;
4432;SDS011;2229;48.708;9.706;2023-03-23T07:41:59;2.80;;;0.80;;
4432;SDS011;2229;48.708;9.706;2023-03-23T07:44:41;2.13;;;1.17;;
4432;SDS011;2229;48.708;9.706;2023-03-23T07:47:11;2.03;;;1.13;;
4432;SDS011;2229;48.708;9.706;2023-03-23T07:49:41;1.90;;;0.90;;
4432;SDS011;2229;48.708;9.706;2023-03-23T07:52:16;1.70;;;0.80;;
4432;SDS011;2229;48.708;9.706;2023-03-23T07:54:44;2.03;;;0.80;;
4432;SDS011;2229;48.708;9.706;2023-03-23T07:57:43;2.30;;;1.07;;
4432;SDS011;2229;48.708;9.706;2023-03-23T08:00:12;2.90;;;1.10;;
4432;SDS011;2229;48.708;9.706;2023-03-23T08:02:45;1.43;;;0.60;;
4432;SDS011;2229;48.708;9.706;2023-03-23T08:05:39;2.83;;;0.90;;
4432;SDS011;2229;48.708;9.706;2023-03-23T08:08:25;3.17;;;1.00;;
4432;SDS011;2229;48.708;9.706;2023-03-23T08:11:10;4.40;;;1.10;;
4432;SDS011;2229;48.708;9.706;2023-03-23T08:13:50;3.37;;;1.20;;
4432;SDS011;2229;48.708;9.706;2023-03-23T08:16:29;2.47;;;1.37;;
4432;SDS011;2229;48.708;9.706;2023-03-23T08:18:57;3.73;;;1.43;;
4432;SDS011;2229;48.708;9.706;2023-03-23T08:21:41;3.20;;;1.10;;
4432;SDS011;2229;48.708;9.706;2023-03-23T08:24:21;3.07;;;1.40;;
4432;SDS011;2229;48.708;9.706;2023-03-23T08:26:48;3.80;;;1.03;;
4432;SDS011;2229;48.708;9.706;2023-03-23T08:29:34;1.47;;;0.80;;
4432;SDS011;2229;48.708;9.706;2023-03-23T08:32:22;3.40;;;1.00;;
4432;SDS011;2229;48.708;9.706;2023-03-23T08:35:24;2.50;;;1.00;;
4432;SDS011;2229;48.708;9.706;2023-03-23T08:38:16;2.63;;;1.27;;
4432;SDS011;2229;48.708;9.706;2023-03-23T08:41:02;2.33;;;0.87;;
4432;SDS011;2229;48.708;9.706;2023-03-23T08:43:47;2.30;;;0.93;;
4432;SDS011;2229;48.708;9.706;2023-03-23T08:46:34;7.37;;;1.13;;
4432;SDS011;2229;48.708;9.706;2023-03-23T08:49:05;2.50;;;1.03;;
4432;SDS011;2229;48.708;9.706;2023-03-23T08:51:41;3.20;;;1.30;;
4432;SDS011;2229;48.708;9.706;2023-03-23T08:54:45;3.93;;;1.10;;
4432;SDS011;2229;48.708;9.706;2023-03-23T08:57:25;2.10;;;1.30;;
4432;SDS011;2229;48.708;9.706;2023-03-23T09:00:07;2.40;;;0.90;;
4432;SDS011;2229;48.708;9.706;2023-03-23T09:02:57;1.90;;;1.03;;
4432;SDS011;2229;48.708;9.706;2023-03-23T09:05:36;3.90;;;1.30;;
4432;SDS011;2229;48.708;9.706;2023-03-23T09:08:25;1.90;;;0.93;;
4432;SDS011;2229;48.708;9.706;2023-03-23T09:10:55;2.20;;;0.87;;
4432;SDS011;2229;48.708;9.706;2023-03-23T09:13:25;1.93;;;0.83;;
4432;SDS011;2229;48.708;9.706;2023-03-23T09:15:54;2.47;;;1.03;;
4432;SDS011;2229;48.708;9.706;2023-03-23T09:18:21;4.83;;;0.87;;
4432;SDS011;2229;48.708;9.706;2023-03-23T09:20:49;2.00;;;1.00;;
4432;SDS011;2229;48.708;9.706;2023-03-23T09:23:17;3.53;;;2.30;;
4432;SDS011;2229;48.708;9.706;2023-03-23T09:25:45;2.40;;;0.80;;
4432;SDS011;2229;48.708;9.706;2023-03-23T09:28:14;1.57;;;0.80;;
4432;SDS011;2229;48.708;9.706;2023-03-23T09:30:41;1.77;;;0.70;;
4432;SDS011;2229;48.708;9.706;2023-03-23T09:33:09;2.27;;;0.70;;
4432;SDS011;2229;48.708;9.706;2023-03-23T09:35:36;4.00;;;1.10;;
4432;SDS011;2229;48.708;9.706;2023-03-23T09:38:07;3.93;;;1.00;;
4432;SDS011;2229;48.708;9.706;2023-03-23T09:40:39;1.73;;;0.73;;
4432;SDS011;2229;48.708;9.706;2023-03-23T09:43:28;2.47;;;0.87;;
4432;SDS011;2229;48.708;9.706;2023-03-23T09:46:10;4.17;;;1.57;;
4432;SDS011;2229;48.708;9.706;2023-03-23T09:48:54;2.37;;;1.10;;
4432;SDS011;2229;48.708;9.706;2023-03-23T09:51:28;2.90;;;1.10;;
4432;SDS011;2229;48.708;9.706;2023-03-23T09:54:05;2.07;;;1.10;;
4432;SDS011;2229;48.708;9.706;2023-03-23T09:56:38;4.73;;;1.10;;
4432;SDS011;2229;48.708;9.706;2023-03-23T09:59:11;2.77;;;1.00;;
4432;SDS011;2229;48.708;9.706;2023-03-23T10:01:44;1.57;;;0.70;;
4432;SDS011;2229;48.708;9.706;2023-03-23T10:04:15;2.00;;;1.00;;
4432;SDS011;2229;48.708;9.706;2023-03-23T10:06:50;2.03;;;0.83;;
4432;SDS011;2229;48.708;9.706;2023-03-23T10:09:18;1.57;;;0.70;;
4432;SDS011;2229;48.708;9.706;2023-03-23T10:11:53;2.43;;;1.10;;
4432;SDS011;2229;48.708;9.706;2023-03-23T10:14:29;1.80;;;0.83;;
4432;SDS011;2229;48.708;9.706;2023-03-23T10:17:08;1.90;;;0.90;;
4432;SDS011;2229;48.708;9.706;2023-03-23T10:19:42;2.27;;;1.00;;
4432;SDS011;2229;48.708;9.706;2023-03-23T10:22:15;3.40;;;1.00;;
4432;SDS011;2229;48.708;9.706;2023-03-23T10:24:49;2.30;;;1.00;;
4432;SDS011;2229;48.708;9.706;2023-03-23T10:27:19;2.30;;;1.00;;
4432;SDS011;2229;48.708;9.706;2023-03-23T10:29:55;3.77;;;1.00;;
4432;SDS011;2229;48.708;9.706;2023-03-23T10:32:39;4.10;;;2.73;;
4432;SDS011;2229;48.708;9.706;2023-03-23T10:35:11;1.80;;;0.90;;
4432;SDS011;2229;48.708;9.706;2023-03-23T10:37:43;2.67;;;1.00;;
4432;SDS011;2229;48.708;9.706;2023-03-23T10:40:16;2.93;;;0.90;;
4432;SDS011;2229;48.708;9.706;2023-03-23T10:42:46;10.00;;;1.23;;
4432;SDS011;2229;48.708;9.706;2023-03-23T10:45:17;2.60;;;0.77;;
4432;SDS011;2229;48.708;9.706;2023-03-23T10:47:49;2.60;;;1.27;;
4432;SDS011;2229;48.708;9.706;2023-03-23T10:50:22;2.93;;;1.20;;
4432;SDS011;2229;48.708;9.706;2023-03-23T10:52:53;1.40;;;0.60;;
4432;SDS011;2229;48.708;9.706;2023-03-23T10:55:24;1.77;;;0.63;;
4432;SDS011;2229;48.708;9.706;2023-03-23T10:58:06;2.10;;;1.00;;
4432;SDS011;2229;48.708;9.706;2023-03-23T11:00:41;3.30;;;0.70;;
4432;SDS011;2229;48.708;9.706;2023-03-23T11:03:23;1.80;;;1.10;;
4432;SDS011;2229;48.708;9.706;2023-03-23T11:05:55;3.10;;;1.40;;
4432;SDS011;2229;48.708;9.706;2023-03-23T11:08:25;4.10;;;1.97;;
4432;SDS011;2229;48.708;9.706;2023-03-23T11:10:56;1.90;;;1.53;;
4432;SDS011;2229;48.708;9.706;2023-03-23T11:13:27;2.90;;;0.70;;
4432;SDS011;2229;48.708;9.706;2023-03-23T11:15:58;1.60;;;0.70;;
4432;SDS011;2229;48.708;9.706;2023-03-23T11:18:34;2.00;;;0.70;;
4432;SDS011;2229;48.708;9.706;2023-03-23T11:21:03;2.33;;;0.70;;
4432;SDS011;2229;48.708;9.706;2023-03-23T11:23:33;2.70;;;1.07;;
4432;SDS011;2229;48.708;9.706;2023-03-23T11:26:05;2.03;;;0.70;;
4432;SDS011;2229;48.708;9.706;2023-03-23T11:28:38;1.40;;;0.73;;
4432;SDS011;2229;48.708;9.706;2023-03-23T11:31:11;1.67;;;1.07;;
4432;SDS011;2229;48.708;9.706;2023-03-23T11:33:40;2.07;;;0.97;;
4432;SDS011;2229;48.708;9.706;2023-03-23T11:36:14;2.17;;;0.70;;
4432;SDS011;2229;48.708;9.706;2023-03-23T11:38:42;2.13;;;1.20;;
4432;SDS011;2229;48.708;9.706;2023-03-23T11:41:11;2.17;;;0.70;;
4432;SDS011;2229;48.708;9.706;2023-03-23T11:43:44;3.73;;;1.00;;
4432;SDS011;2229;48.708;9.706;2023-03-23T11:46:18;1.80;;;0.93;;
4432;SDS011;2229;48.708;9.706;2023-03-23T11:48:54;1.93;;;0.83;;
4432;SDS011;2229;48.708;9.706;2023-03-23T11:51:28;1.53;;;0.70;;
4432;SDS011;2229;48.708;9.706;2023-03-23T11:54:00;1.83;;;1.00;;
4432;SDS011;2229;48.708;9.706;2023-03-23T11:56:33;1.50;;;0.80;;
4432;SDS011;2229;48.708;9.706;2023-03-23T11:59:02;1.53;;;0.83;;
4432;SDS011;2229;48.708;9.706;2023-03-23T12:01:40;2.90;;;1.00;;
4432;SDS011;2229;48.708;9.706;2023-03-23T12:04:33;1.87;;;0.80;;
4432;SDS011;2229;48.708;9.706;2023-03-23T12:07:34;1.40;;;0.60;;
4432;SDS011;2229;48.708;9.706;2023-03-23T12:10:13;2.60;;;0.70;;
4432;SDS011;2229;48.708;9.706;2023-03-23T12:12:49;1.60;;;0.60;;
4432;SDS011;2229;48.708;9.706;2023-03-23T12:15:25;2.53;;;0.90;;
4432;SDS011;2229;48.708;9.706;2023-03-23T12:18:01;1.87;;;0.80;;
4432;SDS011;2229;48.708;9.706;2023-03-23T12:20:38;2.80;;;0.93;;
4432;SDS011;2229;48.708;9.706;2023-03-23T12:23:18;2.90;;;1.03;;
4432;SDS011;2229;48.708;9.706;2023-03-23T12:26:00;1.80;;;0.90;;
4432;SDS011;2229;48.708;9.706;2023-03-23T12:31:45;2.20;;;1.20;;
4432;SDS011;2229;48.708;9.706;2023-03-23T12:34:24;2.67;;;0.87;;
4432;SDS011;2229;48.708;9.706;2023-03-23T12:37:22;2.60;;;0.80;;
4432;SDS011;2229;48.708;9.706;2023-03-23T12:43:11;3.17;;;0.90;;
4432;SDS011;2229;48.708;9.706;2023-03-23T12:45:57;1.83;;;0.87;;
4432;SDS011;2229;48.708;9.706;2023-03-23T12:48:37;1.90;;;1.10;;
4432;SDS011;2229;48.708;9.706;2023-03-23T12:51:13;1.30;;;0.63;;
4432;SDS011;2229;48.708;9.706;2023-03-23T12:53:49;2.30;;;1.30;;
4432;SDS011;2229;48.708;9.706;2023-03-23T12:56:22;1.97;;;0.73;;
4432;SDS011;2229;48.708;9.706;2023-03-23T12:58:55;3.43;;;0.97;;
4432;SDS011;2229;48.708;9.706;2023-03-23T13:01:29;2.77;;;1.00;;
4432;SDS011;2229;48.708;9.706;2023-03-23T13:03:59;4.20;;;1.47;;
4432;SDS011;2229;48.708;9.706;2023-03-23T13:06:33;1.50;;;0.73;;
4432;SDS011;2229;48.708;9.706;2023-03-23T13:09:05;1.40;;;0.80;;
4432;SDS011;2229;48.708;9.706;2023-03-23T13:11:39;1.97;;;1.00;;
4432;SDS011;2229;48.708;9.706;2023-03-23T13:14:12;1.50;;;0.90;;
4432;SDS011;2229;48.708;9.706;2023-03-23T13:16:55;11.20;;;1.57;;
4432;SDS011;2229;48.708;9.706;2023-03-23T13:19:33;4.67;;;1.47;;
4432;SDS011;2229;48.708;9.706;2023-03-23T13:22:23;3.17;;;0.83;;
4432;SDS011;2229;48.708;9.706;2023-03-23T13:24:58;2.40;;;0.97;;
4432;SDS011;2229;48.708;9.706;2023-03-23T13:27:28;4.63;;;1.10;;
4432;SDS011;2229;48.708;9.706;2023-03-23T13:29:56;2.17;;;1.10;;
4432;SDS011;2229;48.708;9.706;2023-03-23T13:32:29;1.93;;;0.70;;
4432;SDS011;2229;48.708;9.706;2023-03-23T13:35:02;3.40;;;0.93;;
4432;SDS011;2229;48.708;9.706;2023-03-23T13:37:35;5.27;;;1.17;;
4432;SDS011;2229;48.708;9.706;2023-03-23T13:40:15;2.60;;;0.97;;
4432;SDS011;2229;48.708;9.706;2023-03-23T13:42:51;2.00;;;0.77;;
4432;SDS011;2229;48.708;9.706;2023-03-23T13:45:21;1.40;;;0.70;;
4432;SDS011;2229;48.708;9.706;2023-03-23T13:48:02;1.60;;;0.70;;
4432;SDS011;2229;48.708;9.706;2023-03-23T13:50:30;2.30;;;1.27;;
4432;SDS011;2229;48.708;9.706;2023-03-23T13:53:00;2.80;;;1.37;;
4432;SDS011;2229;48.708;9.706;2023-03-23T13:55:41;1.33;;;0.60;;
4432;SDS011;2229;48.708;9.706;2023-03-23T13:58:23;2.30;;;0.90;;
4432;SDS011;2229;48.708;9.706;2023-03-23T14:01:09;3.97;;;1.30;;
4432;SDS011;2229;48.708;9.706;2023-03-23T14:03:42;2.23;;;0.90;;
4432;SDS011;2229;48.708;9.706;2023-03-23T14:06:16;2.70;;;1.07;;
4432;SDS011;2229;48.708;9.706;2023-03-23T14:09:25;1.77;;;0.77;;
4432;SDS011;2229;48.708;9.706;2023-03-23T14:11:56;1.73;;;0.70;;
4432;SDS011;2229;48.708;9.706;2023-03-23T14:14:26;1.93;;;0.80;;
4432;SDS011;2229;48.708;9.706;2023-03-23T14:17:05;2.27;;;1.03;;
4432;SDS011;2229;48.708;9.706;2023-03-23T14:19:36;1.60;;;0.80;;
4432;SDS011;2229;48.708;9.706;2023-03-23T14:22:16;1.77;;;0.60;;
4432;SDS011;2229;48.708;9.706;2023-03-23T14:24:47;2.43;;;0.87;;
4432;SDS011;2229;48.708;9.706;2023-03-23T14:27:15;1.40;;;0.57;;
4432;SDS011;2229;48.708;9.706;2023-03-23T14:29:43;1.60;;;0.80;;
4432;SDS011;2229;48.708;9.706;2023-03-23T14:32:12;1.60;;;0.97;;
4432;SDS011;2229;48.708;9.706;2023-03-23T14:34:42;2.03;;;0.90;;
4432;SDS011;2229;48.708;9.706;2023-03-23T14:37:16;2.90;;;1.10;;
4432;SDS011;2229;48.708;9.706;2023-03-23T14:39:44;2.00;;;1.00;;
4432;SDS011;2229;48.708;9.706;2023-03-23T14:42:15;1.50;;;0.80;;
4432;SDS011;2229;48.708;9.706;2023-03-23T14:44:44;1.20;;;0.60;;
4432;SDS011;2229;48.708;9.706;2023-03-23T14:47:16;1.30;;;0.60;;
4432;SDS011;2229;48.708;9.706;2023-03-23T14:49:46;3.43;;;1.13;;
4432;SDS011;2229;48.708;9.706;2023-03-23T14:52:21;1.50;;;0.57;;
4432;SDS011;2229;48.708;9.706;2023-03-23T14:54:51;1.77;;;0.90;;
4432;SDS011;2229;48.708;9.706;2023-03-23T14:57:19;2.23;;;0.70;;
4432;SDS011;2229;48.708;9.706;2023-03-23T14:59:52;2.87;;;1.00;;
4432;SDS011;2229;48.708;9.706;2023-03-23T15:02:21;4.50;;;1.30;;
4432;SDS011;2229;48.708;9.706;2023-03-23T15:04:52;2.60;;;1.10;;
4432;SDS011;2229;48.708;9.706;2023-03-23T15:07:29;2.07;;;0.80;;
4432;SDS011;2229;48.708;9.706;2023-03-23T15:10:01;1.40;;;0.80;;
4432;SDS011;2229;48.708;9.706;2023-03-23T15:12:32;2.50;;;1.13;;
4432;SDS011;2229;48.708;9.706;2023-03-23T15:15:02;1.80;;;1.00;;
4432;SDS011;2229;48.708;9.706;2023-03-23T15:17:31;2.20;;;1.27;;
4432;SDS011;2229;48.708;9.706;2023-03-23T15:20:07;3.77;;;0.87;;
4432;SDS011;2229;48.708;9.706;2023-03-23T15:22:44;3.60;;;0.90;;
4432;SDS011;2229;48.708;9.706;2023-03-23T15:25:19;2.10;;;0.87;;
4432;SDS011;2229;48.708;9.706;2023-03-23T15:27:49;2.63;;;1.20;;
4432;SDS011;2229;48.708;9.706;2023-03-23T15:30:27;7.87;;;1.07;;
4432;SDS011;2229;48.708;9.706;2023-03-23T15:33:00;1.90;;;0.90;;
4432;SDS011;2229;48.708;9.706;2023-03-23T15:35:32;1.83;;;0.80;;
4432;SDS011;2229;48.708;9.706;2023-03-23T15:38:02;1.93;;;0.87;;
4432;SDS011;2229;48.708;9.706;2023-03-23T15:40:35;2.23;;;0.87;;
4432;SDS011;2229;48.708;9.706;2023-03-23T15:43:05;2.57;;;1.10;;
4432;SDS011;2229;48.708;9.706;2023-03-23T15:45:38;1.77;;;1.00;;
4432;SDS011;2229;48.708;9.706;2023-03-23T15:48:10;1.63;;;0.90;;
4432;SDS011;2229;48.708;9.706;2023-03-23T15:50:41;1.63;;;0.70;;
4432;SDS011;2229;48.708;9.706;2023-03-23T15:53:22;4.00;;;1.20;;
4432;SDS011;2229;48.708;9.706;2023-03-23T15:55:57;3.00;;;1.00;;
4432;SDS011;2229;48.708;9.706;2023-03-23T15:58:26;3.50;;;1.10;;
4432;SDS011;2229;48.708;9.706;2023-03-23T16:00:53;2.47;;;1.00;;
4432;SDS011;2229;48.708;9.706;2023-03-23T16:03:21;1.77;;;0.90;;
4432;SDS011;2229;48.708;9.706;2023-03-23T16:05:52;3.60;;;0.90;;
4432;SDS011;2229;48.708;9.706;2023-03-23T16:08:21;2.50;;;1.57;;